Time;durP1;ratioP1;P1;durP2;ratioP2;P2;SDS_P1;SDS_P2;PMS_P1;PMS_P2;Temp;Humidity;BMP_temperature;BMP_pressure;BME280_temperature;BME280_humidity;BME280_pressure;Samples;Min_cycle;Max_cycle;Signal;HPM_P1;HPM_P2
2022/04/19 00:00:19;;;;;;;0.00;0.00;;;;;;;;;;1747990;28;20207;-59
2022/04/19 00:01:12;;;;;;;0.00;0.00;;;;;;;;;;1750493;28;20233;-58
2022/04/19 00:02:03;;;;;;;0.00;0.00;;;;;;;;;;1752476;28;20206;-59
2022/04/19 00:02:55;;;;;;;0.00;0.00;;;;;;;;;;1752331;28;20232;-60
2022/04/19 00:03:49;;;;;;;0.00;0.00;;;;;;;;;;1753462;28;20669;-60
2022/04/19 00:04:40;;;;;;;0.00;0.00;;;;;;;;;;1752051;28;20564;-59
2022/04/19 00:05:32;;;;;;;0.00;0.00;;;;;;;;;;1748702;28;20224;-58
2022/04/19 00:06:24;;;;;;;0.00;0.00;;;;;;;;;;1752715;28;20196;-59
2022/04/19 00:07:15;;;;;;;0.00;0.00;;;;;;;;;;1751121;28;20216;-58
2022/04/19 00:08:08;;;;;;;0.00;0.00;;;;;;;;;;1752585;28;20201;-60
2022/04/19 00:08:59;;;;;;;0.00;0.00;;;;;;;;;;1751616;28;20212;-60
2022/04/19 00:09:52;;;;;;;0.00;0.00;;;;;;;;;;1746284;28;20619;-60
2022/04/19 00:10:43;;;;;;;0.00;0.00;;;;;;;;;;1752969;28;20655;-59
2022/04/19 00:11:36;;;;;;;0.00;0.00;;;;;;;;;;1751875;28;20600;-58
2022/04/19 00:12:27;;;;;;;0.10;0.10;;;;;;;;;;1751365;28;20206;-59
2022/04/19 00:13:20;;;;;;;0.00;0.00;;;;;;;;;;1751996;28;20212;-60
2022/04/19 00:14:11;;;;;;;0.00;0.00;;;;;;;;;;1752067;28;20743;-59
2022/04/19 00:15:04;;;;;;;0.00;0.00;;;;;;;;;;1751223;28;20198;-59
2022/04/19 00:15:55;;;;;;;0.00;0.00;;;;;;;;;;1752061;28;20282;-59
2022/04/19 00:16:47;;;;;;;0.00;0.00;;;;;;;;;;1751490;28;20282;-57
2022/04/19 00:17:39;;;;;;;0.00;0.00;;;;;;;;;;1751275;28;20209;-61
2022/04/19 00:18:31;;;;;;;0.00;0.00;;;;;;;;;;1751684;28;20225;-58
2022/04/19 00:19:25;;;;;;;0.00;0.00;;;;;;;;;;1752576;28;20239;-59
2022/04/19 00:20:17;;;;;;;0.00;0.00;;;;;;;;;;1749807;28;20210;-60
2022/04/19 00:21:09;;;;;;;0.00;0.00;;;;;;;;;;1754071;28;20290;-60
2022/04/19 00:22:02;;;;;;;0.00;0.00;;;;;;;;;;1751337;28;20202;-60
2022/04/19 00:22:53;;;;;;;0.00;0.00;;;;;;;;;;1750263;28;20201;-61
2022/04/19 00:23:46;;;;;;;0.00;0.00;;;;;;;;;;1751253;28;20302;-59
2022/04/19 00:24:37;;;;;;;0.00;0.00;;;;;;;;;;1750228;28;20256;-60
2022/04/19 00:25:29;;;;;;;0.00;0.00;;;;;;;;;;1750351;28;20982;-59
2022/04/19 00:26:21;;;;;;;0.00;0.00;;;;;;;;;;1752438;28;20205;-59
2022/04/19 00:27:13;;;;;;;0.00;0.00;;;;;;;;;;1751342;28;20201;-58
2022/04/19 00:28:05;;;;;;;0.00;0.00;;;;;;;;;;1752319;28;20635;-60
2022/04/19 00:28:57;;;;;;;0.00;0.00;;;;;;;;;;1753633;28;20610;-60
2022/04/19 00:29:49;;;;;;;0.00;0.00;;;;;;;;;;1751753;28;20330;-60
2022/04/19 00:30:41;;;;;;;0.00;0.00;;;;;;;;;;1750463;28;20229;-60
2022/04/19 00:31:32;;;;;;;0.00;0.00;;;;;;;;;;1747033;28;20209;-59
2022/04/19 00:32:25;;;;;;;0.00;0.00;;;;;;;;;;1752084;28;20201;-58
2022/04/19 00:33:16;;;;;;;0.00;0.00;;;;;;;;;;1747189;28;20568;-61
2022/04/19 00:34:08;;;;;;;0.00;0.00;;;;;;;;;;1751319;28;20206;-59
2022/04/19 00:35:01;;;;;;;0.00;0.00;;;;;;;;;;1752722;28;20216;-59
2022/04/19 00:35:53;;;;;;;0.00;0.00;;;;;;;;;;1748685;28;20782;-61
2022/04/19 00:36:44;;;;;;;0.00;0.00;;;;;;;;;;1751572;28;20595;-60
2022/04/19 00:37:37;;;;;;;0.00;0.00;;;;;;;;;;1751335;28;20198;-60
2022/04/19 00:38:29;;;;;;;0.00;0.00;;;;;;;;;;1752579;28;20206;-59
2022/04/19 00:39:22;;;;;;;0.00;0.00;;;;;;;;;;1750320;28;20213;-59
2022/04/19 00:40:14;;;;;;;0.00;0.00;;;;;;;;;;1748111;28;20210;-59
2022/04/19 00:41:06;;;;;;;0.10;0.10;;;;;;;;;;1751519;28;20653;-59
2022/04/19 00:41:57;;;;;;;0.00;0.00;;;;;;;;;;1750288;28;20208;-58
2022/04/19 00:42:49;;;;;;;0.00;0.00;;;;;;;;;;1751618;28;20205;-59
2022/04/19 00:43:40;;;;;;;0.00;0.00;;;;;;;;;;1752524;28;20205;-58
2022/04/19 00:44:37;;;;;;;0.00;0.00;;;;;;;;;;1754129;28;20201;-60
2022/04/19 00:45:31;;;;;;;0.00;0.00;;;;;;;;;;1750068;28;20264;-58
2022/04/19 00:46:24;;;;;;;0.00;0.00;;;;;;;;;;1753653;28;20236;-59
2022/04/19 00:47:15;;;;;;;0.10;0.10;;;;;;;;;;1753004;28;20234;-60
2022/04/19 00:48:08;;;;;;;0.00;0.00;;;;;;;;;;1748700;28;20202;-58
2022/04/19 00:48:59;;;;;;;0.00;0.00;;;;;;;;;;1751373;28;20476;-60
2022/04/19 00:49:51;;;;;;;0.00;0.00;;;;;;;;;;1752219;28;20239;-60
2022/04/19 00:50:44;;;;;;;0.00;0.00;;;;;;;;;;1751008;28;20237;-59
2022/04/19 00:51:36;;;;;;;0.00;0.00;;;;;;;;;;1752753;28;20325;-59
2022/04/19 00:52:27;;;;;;;0.00;0.00;;;;;;;;;;1750737;28;20201;-59
2022/04/19 00:53:20;;;;;;;0.00;0.00;;;;;;;;;;1751873;28;20197;-59
2022/04/19 00:54:11;;;;;;;0.00;0.00;;;;;;;;;;1750264;28;20216;-59
2022/04/19 00:55:05;;;;;;;0.00;0.00;;;;;;;;;;1749983;28;20198;-59
2022/04/19 00:55:57;;;;;;;0.00;0.00;;;;;;;;;;1750952;28;20271;-59
2022/04/19 00:56:49;;;;;;;0.00;0.00;;;;;;;;;;1752702;28;20225;-59
2022/04/19 00:57:40;;;;;;;0.00;0.00;;;;;;;;;;1754325;28;20205;-59
2022/04/19 00:58:36;;;;;;;0.13;0.13;;;;;;;;;;1752110;28;20221;-59
2022/04/19 00:59:27;;;;;;;0.00;0.00;;;;;;;;;;1748224;28;20198;-60
2022/04/19 01:00:20;;;;;;;0.00;0.00;;;;;;;;;;1749042;28;20201;-59
2022/04/19 01:01:11;;;;;;;0.00;0.00;;;;;;;;;;1749474;28;20452;-59
2022/04/19 01:02:03;;;;;;;0.00;0.00;;;;;;;;;;1751060;28;20193;-59
2022/04/19 01:02:55;;;;;;;0.00;0.00;;;;;;;;;;1750344;28;20204;-59
2022/04/19 01:03:47;;;;;;;0.10;0.10;;;;;;;;;;1749389;28;20651;-59
2022/04/19 01:04:38;;;;;;;0.00;0.00;;;;;;;;;;1750304;28;20201;-60
2022/04/19 01:05:30;;;;;;;0.00;0.00;;;;;;;;;;1747441;28;20290;-59
2022/04/19 01:06:23;;;;;;;0.00;0.00;;;;;;;;;;1751032;28;20412;-58
2022/04/19 01:07:15;;;;;;;0.00;0.00;;;;;;;;;;1752776;28;20229;-60
2022/04/19 01:08:07;;;;;;;0.00;0.00;;;;;;;;;;1752656;28;20206;-60
2022/04/19 01:08:59;;;;;;;0.00;0.00;;;;;;;;;;1753602;28;20205;-59
2022/04/19 01:09:50;;;;;;;0.00;0.00;;;;;;;;;;1758827;28;20201;-59
2022/04/19 01:10:44;;;;;;;0.00;0.00;;;;;;;;;;1751901;28;20233;-59
2022/04/19 01:13:56;;;;;;;0.00;0.00;;;;;;;;;;1754237;28;20655;-59
2022/04/19 01:14:49;;;;;;;0.00;0.00;;;;;;;;;;1752296;28;20215;-61
2022/04/19 01:15:41;;;;;;;0.00;0.00;;;;;;;;;;1750067;28;20637;-59
2022/04/19 01:16:33;;;;;;;0.00;0.00;;;;;;;;;;1752647;28;20251;-60
2022/04/19 01:17:25;;;;;;;0.00;0.00;;;;;;;;;;1752717;28;20895;-59
2022/04/19 01:18:20;;;;;;;0.00;0.00;;;;;;;;;;1752159;28;20202;-60
2022/04/19 01:19:15;;;;;;;0.00;0.00;;;;;;;;;;1753232;28;20197;-60
2022/04/19 01:20:08;;;;;;;0.00;0.00;;;;;;;;;;1751231;28;20240;-58
2022/04/19 01:20:59;;;;;;;0.00;0.00;;;;;;;;;;1752070;28;20794;-58
2022/04/19 01:21:54;;;;;;;0.00;0.00;;;;;;;;;;1751986;28;20595;-61
2022/04/19 01:22:49;;;;;;;0.00;0.00;;;;;;;;;;1751018;28;20652;-59
2022/04/19 01:23:41;;;;;;;0.00;0.00;;;;;;;;;;1752101;28;20569;-60
2022/04/19 01:24:32;;;;;;;0.00;0.00;;;;;;;;;;1749486;28;20579;-58
2022/04/19 01:25:25;;;;;;;0.00;0.00;;;;;;;;;;1748865;28;20201;-60
2022/04/19 01:26:17;;;;;;;0.00;0.00;;;;;;;;;;1749537;28;20198;-59
2022/04/19 01:27:10;;;;;;;0.00;0.00;;;;;;;;;;1753260;28;20211;-59
2022/04/19 01:28:01;;;;;;;0.00;0.00;;;;;;;;;;1752334;28;20673;-59
2022/04/19 01:28:53;;;;;;;0.00;0.00;;;;;;;;;;1749785;28;20210;-59
2022/04/19 01:29:45;;;;;;;0.00;0.00;;;;;;;;;;1751920;28;20205;-59
2022/04/19 01:30:38;;;;;;;0.00;0.00;;;;;;;;;;1748316;28;20274;-60
2022/04/19 01:31:29;;;;;;;0.00;0.00;;;;;;;;;;1751256;28;20197;-60
2022/04/19 01:32:21;;;;;;;0.00;0.00;;;;;;;;;;1748549;28;20304;-59
2022/04/19 01:33:14;;;;;;;0.00;0.00;;;;;;;;;;1752107;28;20252;-60
2022/04/19 01:34:06;;;;;;;0.00;0.00;;;;;;;;;;1751285;28;20675;-59
2022/04/19 01:35:08;;;;;;;0.00;0.00;;;;;;;;;;1751990;28;20213;-59
2022/04/19 01:36:00;;;;;;;0.00;0.00;;;;;;;;;;1749400;28;20230;-60
2022/04/19 01:36:52;;;;;;;0.00;0.00;;;;;;;;;;1752295;28;20225;-59
2022/04/19 01:37:45;;;;;;;0.00;0.00;;;;;;;;;;1755730;28;20647;-59
2022/04/19 01:38:36;;;;;;;0.00;0.00;;;;;;;;;;1754524;28;20221;-59
2022/04/19 01:40:38;;;;;;;0.00;0.00;;;;;;;;;;1748302;28;20264;-60
2022/04/19 01:41:29;;;;;;;0.00;0.00;;;;;;;;;;1752231;28;20405;-58
2022/04/19 01:42:22;;;;;;;0.00;0.00;;;;;;;;;;1752620;28;20237;-60
2022/04/19 01:43:13;;;;;;;0.00;0.00;;;;;;;;;;1752461;28;20212;-59
2022/04/19 01:44:06;;;;;;;0.00;0.00;;;;;;;;;;1751975;28;20266;-60
2022/04/19 01:44:58;;;;;;;0.00;0.00;;;;;;;;;;1751168;28;21049;-59
2022/04/19 01:45:50;;;;;;;0.10;0.10;;;;;;;;;;1736845;28;20256;-60
2022/04/19 01:46:42;;;;;;;0.00;0.00;;;;;;;;;;1752487;28;20224;-60
2022/04/19 01:47:35;;;;;;;0.00;0.00;;;;;;;;;;1753392;28;20235;-59
2022/04/19 01:48:27;;;;;;;0.00;0.00;;;;;;;;;;1751494;28;20202;-59
2022/04/19 01:49:18;;;;;;;0.00;0.00;;;;;;;;;;1754228;28;20622;-59
2022/04/19 01:50:11;;;;;;;0.00;0.00;;;;;;;;;;1749509;28;20505;-59
2022/04/19 01:51:02;;;;;;;0.00;0.00;;;;;;;;;;1753158;28;20631;-59
2022/04/19 01:51:56;;;;;;;0.00;0.00;;;;;;;;;;1751414;28;20300;-59
2022/04/19 01:52:48;;;;;;;0.00;0.00;;;;;;;;;;1754225;28;20220;-60
2022/04/19 01:53:41;;;;;;;0.00;0.00;;;;;;;;;;1750350;28;20714;-59
2022/04/19 01:54:33;;;;;;;0.00;0.00;;;;;;;;;;1751917;28;20198;-60
2022/04/19 01:55:26;;;;;;;0.00;0.00;;;;;;;;;;1749254;28;20201;-60
2022/04/19 01:56:17;;;;;;;0.00;0.00;;;;;;;;;;1751435;28;20209;-59
2022/04/19 01:57:09;;;;;;;0.00;0.00;;;;;;;;;;1752865;28;20208;-59
2022/04/19 01:58:01;;;;;;;0.00;0.00;;;;;;;;;;1753411;28;20209;-60
2022/04/19 01:58:53;;;;;;;0.00;0.00;;;;;;;;;;1750278;28;20658;-60
2022/04/19 01:59:45;;;;;;;0.03;0.03;;;;;;;;;;1748960;28;20205;-60
2022/04/19 02:00:37;;;;;;;0.00;0.00;;;;;;;;;;1746393;28;20229;-58
2022/04/19 02:01:28;;;;;;;0.00;0.00;;;;;;;;;;1752744;28;20241;-60
2022/04/19 02:02:20;;;;;;;0.00;0.00;;;;;;;;;;1755103;28;20205;-60
2022/04/19 02:03:12;;;;;;;0.10;0.10;;;;;;;;;;1753219;28;20201;-59
2022/04/19 02:04:04;;;;;;;0.00;0.00;;;;;;;;;;1751798;28;20296;-61
2022/04/19 02:04:55;;;;;;;0.00;0.00;;;;;;;;;;1753947;28;20229;-60
2022/04/19 02:05:47;;;;;;;0.10;0.10;;;;;;;;;;1748309;28;20226;-59
2022/04/19 02:06:39;;;;;;;0.00;0.00;;;;;;;;;;1753841;28;20213;-60
2022/04/19 02:07:33;;;;;;;0.00;0.00;;;;;;;;;;1753148;28;20206;-57
2022/04/19 02:08:24;;;;;;;0.00;0.00;;;;;;;;;;1752492;28;20668;-59
2022/04/19 02:09:16;;;;;;;0.00;0.00;;;;;;;;;;1751042;28;20351;-58
2022/04/19 02:10:08;;;;;;;0.00;0.00;;;;;;;;;;1753339;28;20496;-60
2022/04/19 02:11:01;;;;;;;0.00;0.00;;;;;;;;;;1753546;28;20710;-60
2022/04/19 02:11:52;;;;;;;0.00;0.00;;;;;;;;;;1753789;28;20209;-59
2022/04/19 02:12:44;;;;;;;0.10;0.10;;;;;;;;;;1753831;28;20193;-60
2022/04/19 02:13:35;;;;;;;0.00;0.00;;;;;;;;;;1754400;28;20228;-59
2022/04/19 02:14:27;;;;;;;0.00;0.00;;;;;;;;;;1750215;28;20221;-59
2022/04/19 02:15:19;;;;;;;0.00;0.00;;;;;;;;;;1750217;28;20206;-59
2022/04/19 02:16:11;;;;;;;0.10;0.10;;;;;;;;;;1755508;28;20225;-59
2022/04/19 02:17:02;;;;;;;0.00;0.00;;;;;;;;;;1752635;28;20222;-59
2022/04/19 02:17:55;;;;;;;0.00;0.00;;;;;;;;;;1753409;28;20198;-61
2022/04/19 02:18:46;;;;;;;0.00;0.00;;;;;;;;;;1752613;28;20229;-60
2022/04/19 02:19:38;;;;;;;0.03;0.03;;;;;;;;;;1755237;28;20201;-57
2022/04/19 02:20:30;;;;;;;0.00;0.00;;;;;;;;;;1747855;28;20237;-60
2022/04/19 02:21:22;;;;;;;0.10;0.10;;;;;;;;;;1753805;28;20201;-59
2022/04/19 02:22:13;;;;;;;0.10;0.10;;;;;;;;;;1751103;28;20218;-57
2022/04/19 02:23:08;;;;;;;0.20;0.20;;;;;;;;;;1753222;28;20201;-60
2022/04/19 02:23:59;;;;;;;0.00;0.00;;;;;;;;;;1754128;28;20244;-59
2022/04/19 02:24:51;;;;;;;0.00;0.00;;;;;;;;;;1753720;28;20213;-60
2022/04/19 02:25:42;;;;;;;0.00;0.00;;;;;;;;;;1750911;28;20245;-59
2022/04/19 02:26:37;;;;;;;0.00;0.00;;;;;;;;;;1753503;28;20218;-60
2022/04/19 02:27:31;;;;;;;0.00;0.00;;;;;;;;;;1754600;28;20201;-59
2022/04/19 02:28:23;;;;;;;0.00;0.00;;;;;;;;;;1752619;28;20202;-60
2022/04/19 02:29:16;;;;;;;0.00;0.00;;;;;;;;;;1751690;28;20217;-59
2022/04/19 02:30:13;;;;;;;0.00;0.00;;;;;;;;;;1751756;28;20694;-57
2022/04/19 02:31:04;;;;;;;0.00;0.00;;;;;;;;;;1750736;28;20238;-59
2022/04/19 02:31:56;;;;;;;0.00;0.00;;;;;;;;;;1752547;28;20535;-59
2022/04/19 02:32:48;;;;;;;0.00;0.00;;;;;;;;;;1754318;28;20660;-60
2022/04/19 02:33:40;;;;;;;0.00;0.00;;;;;;;;;;1752486;28;20539;-59
2022/04/19 02:34:32;;;;;;;0.00;0.00;;;;;;;;;;1753089;28;20201;-61
2022/04/19 02:35:27;;;;;;;0.00;0.00;;;;;;;;;;1748936;28;20209;-58
2022/04/19 02:36:18;;;;;;;0.00;0.00;;;;;;;;;;1753616;28;20197;-61
2022/04/19 02:37:11;;;;;;;0.10;0.10;;;;;;;;;;1755223;28;20703;-60
2022/04/19 02:38:03;;;;;;;0.00;0.00;;;;;;;;;;1754913;28;20211;-59
2022/04/19 02:38:57;;;;;;;0.00;0.00;;;;;;;;;;1752553;28;20579;-59
2022/04/19 02:39:48;;;;;;;0.00;0.00;;;;;;;;;;1752728;28;20201;-60
2022/04/19 02:40:40;;;;;;;0.00;0.00;;;;;;;;;;1751558;28;20251;-59
2022/04/19 02:41:31;;;;;;;0.00;0.00;;;;;;;;;;1754052;28;20655;-59
2022/04/19 02:42:24;;;;;;;0.05;0.05;;;;;;;;;;1753196;28;20232;-61
2022/04/19 02:43:15;;;;;;;0.08;0.08;;;;;;;;;;1753275;28;20216;-59
2022/04/19 02:44:08;;;;;;;0.05;0.05;;;;;;;;;;1755506;28;20713;-60
2022/04/19 02:45:12;;;;;;;0.00;0.00;;;;;;;;;;1752612;28;20205;-60
2022/04/19 02:46:04;;;;;;;0.10;0.10;;;;;;;;;;1727778;28;20227;-59
2022/04/19 02:52:17;;;;;;;0.10;0.10;;;;;;;;;;1640764;29;20255;-60
2022/04/19 02:53:13;;;;;;;0.00;0.00;;;;;;;;;;1650230;29;20746;-60
2022/04/19 02:54:06;;;;;;;0.10;0.10;;;;;;;;;;1678080;29;20286;-59
2022/04/19 02:55:36;;;;;;;0.10;0.10;;;;;;;;;;1706942;28;20211;-59
2022/04/19 02:56:28;;;;;;;0.00;0.00;;;;;;;;;;1728469;28;20228;-59
2022/04/19 02:57:19;;;;;;;0.10;0.10;;;;;;;;;;1732231;28;20572;-60
2022/04/19 02:58:11;;;;;;;0.30;0.30;;;;;;;;;;1730422;28;20207;-59
2022/04/19 02:59:03;;;;;;;0.00;0.00;;;;;;;;;;1732879;28;20286;-59
2022/04/19 02:59:55;;;;;;;0.00;0.00;;;;;;;;;;1728103;28;20200;-59
2022/04/19 03:00:46;;;;;;;0.00;0.00;;;;;;;;;;1725931;28;20232;-59
2022/04/19 03:01:38;;;;;;;0.10;0.10;;;;;;;;;;1731194;28;20211;-59
2022/04/19 03:02:30;;;;;;;0.00;0.00;;;;;;;;;;1730628;28;20660;-58
2022/04/19 03:03:22;;;;;;;0.10;0.10;;;;;;;;;;1730840;28;20199;-60
2022/04/19 03:04:13;;;;;;;0.00;0.00;;;;;;;;;;1730248;28;20207;-59
2022/04/19 03:05:05;;;;;;;0.00;0.00;;;;;;;;;;1730909;28;20205;-59
2022/04/19 03:05:57;;;;;;;0.10;0.10;;;;;;;;;;1731088;28;20649;-59
2022/04/19 03:06:49;;;;;;;0.00;0.00;;;;;;;;;;1730454;28;20219;-59
2022/04/19 03:07:41;;;;;;;0.00;0.00;;;;;;;;;;1733196;28;20214;-59
2022/04/19 03:08:34;;;;;;;0.00;0.00;;;;;;;;;;1730845;28;20200;-59
2022/04/19 03:09:27;;;;;;;0.00;0.00;;;;;;;;;;1731912;28;20212;-59
2022/04/19 03:10:21;;;;;;;0.05;0.05;;;;;;;;;;1727204;28;20203;-60
2022/04/19 03:11:12;;;;;;;0.00;0.00;;;;;;;;;;1733597;28;20220;-59
2022/04/19 03:12:05;;;;;;;0.05;0.05;;;;;;;;;;1730517;28;20204;-59
2022/04/19 03:12:56;;;;;;;0.00;0.00;;;;;;;;;;1728989;28;20500;-59
2022/04/19 03:13:48;;;;;;;0.00;0.00;;;;;;;;;;1730670;28;20207;-60
2022/04/19 03:14:39;;;;;;;0.00;0.00;;;;;;;;;;1731019;28;20203;-59
2022/04/19 03:15:34;;;;;;;0.00;0.00;;;;;;;;;;1727901;28;20310;-59
2022/04/19 03:16:26;;;;;;;0.00;0.00;;;;;;;;;;1730698;28;20204;-59
2022/04/19 03:17:18;;;;;;;0.05;0.05;;;;;;;;;;1731883;28;20230;-60
2022/04/19 03:18:09;;;;;;;0.00;0.00;;;;;;;;;;1731442;28;20686;-59
2022/04/19 03:19:01;;;;;;;0.03;0.03;;;;;;;;;;1727796;28;20214;-60
2022/04/19 03:19:53;;;;;;;0.10;0.10;;;;;;;;;;1725026;28;20219;-58
2022/04/19 03:20:48;;;;;;;0.20;0.20;;;;;;;;;;1726553;28;20230;-60
2022/04/19 03:21:40;;;;;;;0.10;0.10;;;;;;;;;;1731828;28;20223;-60
2022/04/19 03:28:18;;;;;;;0.00;0.00;;;;;;;;;;1753085;28;20190;-59
2022/04/19 03:29:10;;;;;;;0.20;0.20;;;;;;;;;;1749361;28;20214;-60
2022/04/19 03:30:02;;;;;;;0.00;0.00;;;;;;;;;;1753068;28;20205;-60
2022/04/19 03:30:53;;;;;;;0.00;0.00;;;;;;;;;;1747059;28;20237;-59
2022/04/19 03:31:46;;;;;;;0.10;0.10;;;;;;;;;;1752876;28;20288;-60
2022/04/19 03:32:37;;;;;;;0.00;0.00;;;;;;;;;;1750755;28;20286;-60
2022/04/19 03:33:29;;;;;;;0.00;0.00;;;;;;;;;;1753397;28;20208;-59
2022/04/19 03:34:21;;;;;;;0.15;0.15;;;;;;;;;;1749845;28;20217;-60
2022/04/19 03:35:13;;;;;;;0.00;0.00;;;;;;;;;;1750229;28;20197;-60
2022/04/19 03:36:04;;;;;;;0.00;0.00;;;;;;;;;;1749625;28;20244;-60
2022/04/19 03:36:56;;;;;;;0.00;0.00;;;;;;;;;;1753292;28;20252;-60
2022/04/19 03:37:48;;;;;;;0.00;0.00;;;;;;;;;;1750689;28;20537;-60
2022/04/19 03:38:40;;;;;;;0.00;0.00;;;;;;;;;;1751741;28;20201;-60
2022/04/19 03:39:31;;;;;;;0.00;0.00;;;;;;;;;;1752482;28;20241;-60
2022/04/19 03:40:25;;;;;;;0.00;0.00;;;;;;;;;;1749144;28;20207;-59
2022/04/19 03:41:17;;;;;;;0.00;0.00;;;;;;;;;;1750095;28;20210;-60
2022/04/19 03:42:09;;;;;;;0.10;0.10;;;;;;;;;;1752553;28;20197;-60
2022/04/19 03:43:00;;;;;;;0.00;0.00;;;;;;;;;;1751489;28;20206;-59
2022/04/19 03:43:52;;;;;;;0.20;0.20;;;;;;;;;;1751456;28;20201;-60
2022/04/19 03:44:43;;;;;;;0.00;0.00;;;;;;;;;;1751135;28;20208;-59
2022/04/19 03:45:36;;;;;;;0.10;0.10;;;;;;;;;;1748795;28;20604;-60
2022/04/19 03:46:27;;;;;;;0.00;0.00;;;;;;;;;;1751935;28;20202;-60
2022/04/19 03:47:20;;;;;;;0.00;0.00;;;;;;;;;;1749811;28;20193;-60
2022/04/19 03:48:13;;;;;;;0.00;0.00;;;;;;;;;;1752508;28;20216;-60
2022/04/19 03:49:06;;;;;;;0.00;0.00;;;;;;;;;;1750166;28;20212;-59
2022/04/19 03:49:57;;;;;;;0.00;0.00;;;;;;;;;;1752400;28;20205;-59
2022/04/19 03:50:51;;;;;;;0.30;0.30;;;;;;;;;;1750011;28;20772;-59
2022/04/19 03:51:42;;;;;;;0.00;0.00;;;;;;;;;;1753554;28;20202;-61
2022/04/19 03:52:36;;;;;;;0.13;0.13;;;;;;;;;;1751755;28;20205;-60
2022/04/19 03:53:27;;;;;;;0.10;0.10;;;;;;;;;;1751856;28;20641;-59
2022/04/19 03:54:19;;;;;;;0.00;0.00;;;;;;;;;;1750359;28;20206;-60
2022/04/19 03:55:10;;;;;;;0.03;0.03;;;;;;;;;;1749192;28;20204;-60
2022/04/19 03:56:04;;;;;;;0.00;0.00;;;;;;;;;;1748874;28;20236;-59
2022/04/19 03:56:55;;;;;;;0.15;0.15;;;;;;;;;;1751157;28;20224;-60
2022/04/19 03:57:48;;;;;;;0.10;0.10;;;;;;;;;;1750488;28;20225;-60
2022/04/19 03:58:39;;;;;;;0.08;0.08;;;;;;;;;;1752315;28;20205;-60
2022/04/19 03:59:31;;;;;;;0.10;0.10;;;;;;;;;;1746689;28;20202;-59
2022/04/19 04:00:23;;;;;;;0.00;0.00;;;;;;;;;;1748518;28;20201;-60
2022/04/19 04:01:14;;;;;;;0.00;0.00;;;;;;;;;;1752492;28;20251;-60
2022/04/19 04:02:06;;;;;;;0.00;0.00;;;;;;;;;;1752955;28;20201;-60
2022/04/19 04:02:57;;;;;;;0.00;0.00;;;;;;;;;;1750296;28;20244;-59
2022/04/19 04:03:50;;;;;;;0.20;0.20;;;;;;;;;;1752272;28;20200;-60
2022/04/19 04:04:42;;;;;;;0.10;0.10;;;;;;;;;;1750664;28;20244;-60
2022/04/19 04:05:34;;;;;;;0.00;0.00;;;;;;;;;;1747509;28;20237;-59
2022/04/19 04:06:25;;;;;;;0.00;0.00;;;;;;;;;;1751359;28;20209;-60
2022/04/19 04:07:17;;;;;;;0.10;0.10;;;;;;;;;;1749887;28;20582;-60
2022/04/19 04:08:09;;;;;;;0.10;0.10;;;;;;;;;;1752531;28;20202;-60
2022/04/19 04:09:01;;;;;;;0.00;0.00;;;;;;;;;;1749406;28;20225;-60
2022/04/19 04:09:53;;;;;;;0.00;0.00;;;;;;;;;;1746633;28;20294;-59
2022/04/19 04:10:45;;;;;;;0.00;0.00;;;;;;;;;;1749783;28;20282;-60
2022/04/19 04:11:37;;;;;;;0.10;0.10;;;;;;;;;;1751645;28;20224;-59
2022/04/19 04:12:30;;;;;;;0.10;0.10;;;;;;;;;;1751586;28;20220;-60
2022/04/19 04:13:21;;;;;;;0.00;0.00;;;;;;;;;;1753205;28;20695;-60
2022/04/19 04:14:13;;;;;;;0.00;0.00;;;;;;;;;;1751155;28;20613;-60
2022/04/19 04:15:05;;;;;;;0.05;0.05;;;;;;;;;;1751448;28;20265;-59
2022/04/19 04:15:57;;;;;;;0.00;0.00;;;;;;;;;;1747763;28;20233;-60
2022/04/19 04:16:48;;;;;;;0.00;0.00;;;;;;;;;;1752451;28;20225;-60
2022/04/19 04:17:39;;;;;;;0.10;0.10;;;;;;;;;;1751632;28;20255;-60
2022/04/19 04:18:32;;;;;;;0.00;0.00;;;;;;;;;;1751200;28;20245;-60
2022/04/19 04:19:25;;;;;;;0.00;0.00;;;;;;;;;;1750010;28;20849;-60
2022/04/19 04:20:18;;;;;;;0.00;0.00;;;;;;;;;;1750421;28;20198;-59
2022/04/19 04:21:09;;;;;;;0.00;0.00;;;;;;;;;;1753969;28;20273;-59
2022/04/19 04:22:01;;;;;;;0.00;0.00;;;;;;;;;;1752908;28;20287;-59
2022/04/19 04:22:52;;;;;;;0.00;0.00;;;;;;;;;;1752163;28;20220;-59
2022/04/19 04:23:44;;;;;;;0.00;0.00;;;;;;;;;;1749912;28;20212;-60
2022/04/19 04:24:36;;;;;;;0.10;0.10;;;;;;;;;;1751707;28;20229;-60
2022/04/19 04:25:28;;;;;;;0.00;0.00;;;;;;;;;;1748054;28;20209;-59
2022/04/19 04:26:19;;;;;;;0.00;0.00;;;;;;;;;;1752472;28;20205;-59
2022/04/19 04:27:13;;;;;;;0.00;0.00;;;;;;;;;;1751073;28;20210;-60
2022/04/19 04:28:04;;;;;;;0.00;0.00;;;;;;;;;;1751106;28;20202;-60
2022/04/19 04:28:56;;;;;;;0.30;0.30;;;;;;;;;;1751878;28;20210;-60
2022/04/19 04:29:47;;;;;;;0.00;0.00;;;;;;;;;;1751578;28;20201;-60
2022/04/19 04:30:40;;;;;;;0.08;0.08;;;;;;;;;;1747468;28;20233;-60
2022/04/19 04:31:31;;;;;;;0.10;0.10;;;;;;;;;;1752715;28;20202;-60
2022/04/19 04:32:23;;;;;;;0.00;0.00;;;;;;;;;;1752686;28;20205;-60
2022/04/19 04:33:14;;;;;;;0.00;0.00;;;;;;;;;;1752844;28;20260;-59
2022/04/19 04:34:07;;;;;;;0.10;0.10;;;;;;;;;;1749410;28;20205;-60
2022/04/19 04:34:58;;;;;;;0.13;0.13;;;;;;;;;;1751881;28;20565;-59
2022/04/19 04:35:51;;;;;;;0.10;0.10;;;;;;;;;;1747655;28;20225;-59
2022/04/19 04:36:42;;;;;;;0.10;0.10;;;;;;;;;;1752105;28;20390;-60
2022/04/19 04:37:34;;;;;;;0.20;0.20;;;;;;;;;;1749801;28;20194;-59
2022/04/19 04:38:25;;;;;;;0.00;0.00;;;;;;;;;;1751234;28;20206;-59
2022/04/19 04:39:17;;;;;;;0.08;0.08;;;;;;;;;;1753609;28;20246;-60
2022/04/19 04:40:09;;;;;;;0.00;0.00;;;;;;;;;;1749997;28;20209;-60
2022/04/19 04:41:01;;;;;;;0.00;0.00;;;;;;;;;;1753833;28;20610;-60
2022/04/19 04:41:52;;;;;;;0.10;0.10;;;;;;;;;;1751612;28;20210;-59
2022/04/19 04:42:46;;;;;;;0.00;0.00;;;;;;;;;;1751086;28;20193;-60
2022/04/19 04:43:38;;;;;;;0.30;0.30;;;;;;;;;;1751546;28;20203;-59
2022/04/19 04:44:29;;;;;;;0.00;0.00;;;;;;;;;;1754548;28;20201;-60
2022/04/19 04:45:21;;;;;;;0.00;0.00;;;;;;;;;;1748872;28;20193;-60
2022/04/19 04:49:41;;;;;;;0.00;0.00;;;;;;;;;;1752407;28;20185;-59
2022/04/19 04:50:33;;;;;;;0.00;0.00;;;;;;;;;;1749865;28;20237;-59
2022/04/19 04:51:25;;;;;;;0.00;0.00;;;;;;;;;;1753358;28;20617;-59
2022/04/19 04:52:18;;;;;;;0.00;0.00;;;;;;;;;;1750304;28;20210;-60
2022/04/19 04:53:09;;;;;;;0.00;0.00;;;;;;;;;;1752428;28;20262;-59
2022/04/19 04:54:01;;;;;;;0.00;0.00;;;;;;;;;;1749843;28;20221;-60
2022/04/19 04:54:53;;;;;;;0.00;0.00;;;;;;;;;;1750918;28;20850;-59
2022/04/19 04:55:45;;;;;;;0.00;0.00;;;;;;;;;;1749353;28;20288;-59
2022/04/19 04:56:36;;;;;;;0.10;0.10;;;;;;;;;;1751887;28;20221;-59
2022/04/19 04:57:28;;;;;;;0.00;0.00;;;;;;;;;;1751792;28;20197;-60
2022/04/19 04:58:21;;;;;;;0.00;0.00;;;;;;;;;;1752262;28;20209;-59
2022/04/19 04:59:13;;;;;;;0.00;0.00;;;;;;;;;;1749175;28;20202;-59
2022/04/19 05:00:08;;;;;;;0.10;0.10;;;;;;;;;;1748631;28;20220;-60
2022/04/19 05:01:00;;;;;;;0.10;0.10;;;;;;;;;;1746129;28;20234;-59
2022/04/19 05:01:52;;;;;;;0.00;0.00;;;;;;;;;;1751442;28;20663;-59
2022/04/19 05:02:44;;;;;;;0.00;0.00;;;;;;;;;;1749990;28;20661;-59
2022/04/19 05:03:36;;;;;;;0.00;0.00;;;;;;;;;;1753042;28;20201;-59
2022/04/19 05:04:28;;;;;;;0.00;0.00;;;;;;;;;;1754283;28;20213;-60
2022/04/19 05:05:20;;;;;;;0.00;0.00;;;;;;;;;;1747167;28;20247;-58
2022/04/19 05:06:11;;;;;;;0.10;0.10;;;;;;;;;;1754472;28;20198;-58
2022/04/19 05:07:04;;;;;;;0.10;0.10;;;;;;;;;;1750947;28;20297;-59
2022/04/19 05:07:55;;;;;;;0.08;0.08;;;;;;;;;;1754563;28;20229;-59
2022/04/19 05:08:47;;;;;;;0.00;0.00;;;;;;;;;;1750691;28;20252;-60
2022/04/19 05:09:39;;;;;;;0.05;0.05;;;;;;;;;;1752182;28;20712;-60
2022/04/19 05:10:31;;;;;;;0.20;0.20;;;;;;;;;;1749608;28;20544;-59
2022/04/19 05:11:22;;;;;;;0.03;0.03;;;;;;;;;;1753440;28;20478;-59
2022/04/19 05:12:14;;;;;;;0.00;0.00;;;;;;;;;;1751962;28;20197;-60
2022/04/19 05:13:06;;;;;;;0.10;0.10;;;;;;;;;;1751556;28;20221;-59
2022/04/19 05:13:59;;;;;;;0.10;0.10;;;;;;;;;;1753410;28;20197;-60
2022/04/19 05:14:51;;;;;;;0.00;0.00;;;;;;;;;;1752502;28;20210;-60
2022/04/19 05:15:43;;;;;;;0.00;0.00;;;;;;;;;;1751539;28;20232;-59
2022/04/19 05:16:35;;;;;;;0.00;0.00;;;;;;;;;;1746592;28;20230;-59
2022/04/19 05:17:30;;;;;;;0.10;0.10;;;;;;;;;;1751331;28;20205;-60
2022/04/19 05:18:21;;;;;;;0.00;0.00;;;;;;;;;;1752383;28;20225;-59
2022/04/19 05:19:13;;;;;;;0.00;0.00;;;;;;;;;;1751113;28;20228;-58
2022/04/19 05:20:05;;;;;;;0.00;0.00;;;;;;;;;;1751451;28;20675;-59
2022/04/19 05:20:57;;;;;;;0.00;0.00;;;;;;;;;;1749111;28;20229;-59
2022/04/19 05:21:48;;;;;;;0.00;0.00;;;;;;;;;;1751614;28;20208;-59
2022/04/19 05:22:40;;;;;;;0.00;0.00;;;;;;;;;;1751316;28;20229;-59
2022/04/19 05:23:32;;;;;;;0.00;0.00;;;;;;;;;;1751703;28;20203;-59
2022/04/19 05:24:24;;;;;;;0.00;0.00;;;;;;;;;;1752363;28;20553;-59
2022/04/19 05:25:15;;;;;;;0.00;0.00;;;;;;;;;;1749483;28;20545;-59
2022/04/19 05:26:07;;;;;;;0.05;0.05;;;;;;;;;;1750583;28;20244;-60
2022/04/19 05:26:59;;;;;;;0.00;0.00;;;;;;;;;;1752153;28;20272;-59
2022/04/19 05:27:51;;;;;;;0.13;0.13;;;;;;;;;;1752174;28;20197;-58
2022/04/19 05:28:42;;;;;;;0.00;0.00;;;;;;;;;;1751209;28;20683;-59
2022/04/19 05:29:36;;;;;;;0.00;0.00;;;;;;;;;;1752302;28;20225;-58
2022/04/19 05:30:27;;;;;;;0.00;0.00;;;;;;;;;;1747919;28;20287;-59
2022/04/19 05:31:19;;;;;;;0.08;0.08;;;;;;;;;;1748714;28;20325;-59